Time;durP1;ratioP1;P1;durP2;ratioP2;P2;SDS_P1;SDS_P2;PMS_P1;PMS_P2;Temp;Humidity;BMP_temperature;BMP_pressure;BME280_temperature;BME280_humidity;BME280_pressure;Samples;Min_cycle;Max_cycle;Signal;HPM_P1;HPM_P2
2021/01/07 00:03:03;;;;;;;;;77.50;61.00;;;;;;;;12539089;28;8863;-49
2021/01/07 00:09:04;;;;;;;;;77.50;61.25;;;;;;;;12549749;28;8835;-54
2021/01/07 00:15:06;;;;;;;;;69.00;58.50;;;;;;;;12543464;28;8841;-55
2021/01/07 00:21:08;;;;;;;;;74.25;59.25;;;;;;;;12519686;28;8855;-52
2021/01/07 00:27:09;;;;;;;;;78.50;61.25;;;;;;;;12551026;28;8827;-49
2021/01/07 00:33:12;;;;;;;;;77.00;60.25;;;;;;;;12543171;28;8832;-54
2021/01/07 00:39:14;;;;;;;;;71.00;58.25;;;;;;;;12551007;28;8882;-48
2021/01/07 00:45:17;;;;;;;;;76.00;59.75;;;;;;;;12546552;28;8856;-52
2021/01/07 00:51:18;;;;;;;;;75.50;62.25;;;;;;;;12543965;28;8856;-51
2021/01/07 00:57:22;;;;;;;;;73.75;59.00;;;;;;;;12533916;28;8843;-53
2021/01/07 01:03:24;;;;;;;;;76.25;61.00;;;;;;;;12547278;28;8963;-50
2021/01/07 01:09:25;;;;;;;;;81.25;63.75;;;;;;;;12551871;28;8841;-54
2021/01/07 01:15:26;;;;;;;;;73.25;59.25;;;;;;;;12549412;28;8937;-48
2021/01/07 01:21:34;;;;;;;;;78.50;63.00;;;;;;;;12546497;28;8824;-51
2021/01/07 01:27:37;;;;;;;;;77.00;60.00;;;;;;;;12550470;28;8856;-48
2021/01/07 01:33:39;;;;;;;;;75.75;59.25;;;;;;;;12551807;28;8839;-50
2021/01/07 01:39:40;;;;;;;;;75.00;57.25;;;;;;;;12546521;28;8851;-53
2021/01/07 01:45:42;;;;;;;;;70.50;54.75;;;;;;;;12545636;28;8852;-53
2021/01/07 01:51:43;;;;;;;;;76.25;57.00;;;;;;;;12537141;28;8831;-49
2021/01/07 01:57:47;;;;;;;;;14.50;11.25;;;;;;;;12539531;28;8825;-53
2021/01/07 02:03:49;;;;;;;;;77.50;61.25;;;;;;;;12532117;28;8866;-49
2021/01/07 02:09:51;;;;;;;;;81.75;61.50;;;;;;;;12541379;28;9444;-47
2021/01/07 02:15:52;;;;;;;;;72.50;59.00;;;;;;;;12537925;28;8830;-50
2021/01/07 02:21:54;;;;;;;;;76.00;61.00;;;;;;;;12542243;28;8873;-51
2021/01/07 02:27:55;;;;;;;;;70.75;57.50;;;;;;;;12544462;28;8866;-49
2021/01/07 02:33:57;;;;;;;;;74.25;61.25;;;;;;;;12535395;28;9616;-53
2021/01/07 02:39:58;;;;;;;;;71.00;58.50;;;;;;;;12544417;28;8930;-52
2021/01/07 02:45:59;;;;;;;;;74.25;58.25;;;;;;;;12538764;28;8936;-50
2021/01/07 02:52:01;;;;;;;;;77.50;59.00;;;;;;;;12546100;28;8835;-48
2021/01/07 02:58:02;;;;;;;;;73.75;59.00;;;;;;;;12540641;28;8821;-49
2021/01/07 03:04:03;;;;;;;;;74.75;58.75;;;;;;;;12526237;28;8847;-48
2021/01/07 03:10:07;;;;;;;;;74.00;59.50;;;;;;;;12539092;28;8870;-49
2021/01/07 03:16:09;;;;;;;;;71.50;57.50;;;;;;;;12540813;28;8822;-50
2021/01/07 03:22:10;;;;;;;;;72.25;59.00;;;;;;;;12549684;28;8894;-51
2021/01/07 03:28:12;;;;;;;;;77.50;62.00;;;;;;;;12542973;28;9626;-49
2021/01/07 03:34:13;;;;;;;;;80.00;63.25;;;;;;;;12540786;28;8882;-50
2021/01/07 03:40:15;;;;;;;;;79.00;59.25;;;;;;;;12549569;28;8824;-51
2021/01/07 03:46:16;;;;;;;;;72.00;60.00;;;;;;;;12538640;28;8858;-50
2021/01/07 03:52:17;;;;;;;;;73.00;58.50;;;;;;;;12533511;28;8820;-50
2021/01/07 03:58:19;;;;;;;;;76.00;61.00;;;;;;;;12538383;28;8804;-51
2021/01/07 04:04:20;;;;;;;;;72.25;59.00;;;;;;;;12519972;28;8853;-50
2021/01/07 04:10:21;;;;;;;;;75.50;60.00;;;;;;;;12548461;28;8831;-51
2021/01/07 04:16:24;;;;;;;;;77.75;63.00;;;;;;;;12540932;28;8940;-47
2021/01/07 04:22:26;;;;;;;;;84.00;65.25;;;;;;;;12540291;28;8835;-49
2021/01/07 04:28:27;;;;;;;;;78.50;63.25;;;;;;;;12548169;28;8852;-50
2021/01/07 04:34:28;;;;;;;;;83.00;64.50;;;;;;;;12544199;28;10110;-51
2021/01/07 04:40:30;;;;;;;;;80.50;64.00;;;;;;;;12548153;28;8856;-49
2021/01/07 04:46:31;;;;;;;;;78.00;62.00;;;;;;;;12545104;28;8835;-49
2021/01/07 04:52:35;;;;;;;;;80.25;61.50;;;;;;;;12544893;28;8831;-50
2021/01/07 04:58:36;;;;;;;;;84.50;66.75;;;;;;;;12548442;28;8868;-52
2021/01/07 05:04:49;;;;;;;;;84.25;64.50;;;;;;;;13005052;22;8894;-51
2021/01/07 05:10:51;;;;;;;;;84.25;67.00;;;;;;;;12500286;28;8867;-50
2021/01/07 05:16:52;;;;;;;;;85.75;68.25;;;;;;;;12515303;28;8844;-50
2021/01/07 05:23:01;;;;;;;;;80.50;63.50;;;;;;;;12520957;28;9577;-48
2021/01/07 05:29:04;;;;;;;;;81.00;63.50;;;;;;;;12524028;28;8824;-50
2021/01/07 05:35:15;;;;;;;;;87.25;69.75;;;;;;;;12505537;28;8874;-53
2021/01/07 05:41:18;;;;;;;;;87.00;67.00;;;;;;;;12520964;28;8828;-49
2021/01/07 05:47:28;;;;;;;;;92.25;73.25;;;;;;;;12517305;28;8904;-54
2021/01/07 05:53:30;;;;;;;;;84.00;65.25;;;;;;;;12509861;28;8860;-52
2021/01/07 05:59:35;;;;;;;;;86.25;69.25;;;;;;;;12500413;28;8847;-50
2021/01/07 06:05:38;;;;;;;;;65.25;51.00;;;;;;;;12466551;28;9587;-51
2021/01/07 06:11:41;;;;;;;;;88.75;71.25;;;;;;;;12493287;28;8830;-52
2021/01/07 06:17:43;;;;;;;;;81.50;64.75;;;;;;;;12489777;28;8832;-48
2021/01/07 06:23:47;;;;;;;;;81.00;66.25;;;;;;;;12492911;28;8846;-50
2021/01/07 06:29:53;;;;;;;;;85.50;68.00;;;;;;;;12483667;28;8844;-51
2021/01/07 06:36:07;;;;;;;;;79.50;63.00;;;;;;;;12478131;28;9316;-49
2021/01/07 06:42:16;;;;;;;;;78.25;63.00;;;;;;;;12479015;28;8864;-50
2021/01/07 06:48:34;;;;;;;;;79.50;63.75;;;;;;;;12466890;28;8864;-52
2021/01/07 06:54:39;;;;;;;;;83.25;63.00;;;;;;;;12483888;28;8867;-48
2021/01/07 07:00:42;;;;;;;;;80.75;65.00;;;;;;;;12485819;28;8862;-53
2021/01/07 07:07:01;;;;;;;;;75.50;60.25;;;;;;;;12482531;28;8858;-50
2021/01/07 07:13:21;;;;;;;;;71.50;56.75;;;;;;;;12484395;28;8844;-51
2021/01/07 07:19:24;;;;;;;;;74.75;60.75;;;;;;;;12487038;28;8920;-50
2021/01/07 07:25:27;;;;;;;;;65.25;52.75;;;;;;;;12481303;28;8871;-49
2021/01/07 07:31:46;;;;;;;;;68.50;55.25;;;;;;;;12490191;28;8884;-52
2021/01/07 07:37:48;;;;;;;;;69.25;58.00;;;;;;;;12503494;28;8840;-54
2021/01/07 07:43:53;;;;;;;;;86.00;67.50;;;;;;;;12506062;28;8850;-51
2021/01/07 07:49:58;;;;;;;;;80.50;62.75;;;;;;;;12486780;28;8889;-53
2021/01/07 07:55:59;;;;;;;;;89.00;69.00;;;;;;;;12487710;28;9630;-48
2021/01/07 08:02:01;;;;;;;;;79.50;62.75;;;;;;;;12497929;28;8856;-50
2021/01/07 08:08:02;;;;;;;;;77.25;59.75;;;;;;;;12490645;28;8891;-52
2021/01/07 08:14:06;;;;;;;;;73.75;60.50;;;;;;;;12494860;28;8883;-52
2021/01/07 08:20:08;;;;;;;;;82.75;65.25;;;;;;;;12478255;28;8857;-52
2021/01/07 08:26:20;;;;;;;;;82.25;63.75;;;;;;;;12469334;28;8891;-50
2021/01/07 08:32:24;;;;;;;;;76.00;61.75;;;;;;;;12482408;28;8842;-50
2021/01/07 08:38:30;;;;;;;;;75.25;61.50;;;;;;;;12479735;28;9635;-49
2021/01/07 08:44:33;;;;;;;;;74.75;60.00;;;;;;;;12487782;28;8855;-48
2021/01/07 08:50:35;;;;;;;;;66.00;55.00;;;;;;;;12490360;28;8858;-51
2021/01/07 08:56:42;;;;;;;;;70.50;56.50;;;;;;;;12484575;28;8844;-51
2021/01/07 09:02:45;;;;;;;;;65.75;55.25;;;;;;;;12491403;28;8867;-52
2021/01/07 09:08:46;;;;;;;;;56.50;46.25;;;;;;;;12470206;28;9305;-52
2021/01/07 09:15:13;;;;;;;;;55.00;45.25;;;;;;;;12472478;28;8856;-53
2021/01/07 09:21:15;;;;;;;;;45.75;39.25;;;;;;;;12490507;28;8843;-52
2021/01/07 09:27:19;;;;;;;;;45.25;40.25;;;;;;;;12465116;28;8911;-49
2021/01/07 09:33:20;;;;;;;;;50.50;43.25;;;;;;;;12486775;28;8848;-50
2021/01/07 09:39:21;;;;;;;;;47.75;43.00;;;;;;;;12480807;28;9687;-49
2021/01/07 09:45:23;;;;;;;;;57.25;45.75;;;;;;;;12473251;28;8864;-53
2021/01/07 09:51:24;;;;;;;;;62.50;50.75;;;;;;;;12497272;28;8867;-53
2021/01/07 09:57:26;;;;;;;;;53.25;45.00;;;;;;;;12471649;28;8842;-51
2021/01/07 10:03:27;;;;;;;;;49.00;42.25;;;;;;;;12462387;28;8894;-53
2021/01/07 10:09:29;;;;;;;;;49.75;43.00;;;;;;;;12476958;28;8871;-49
2021/01/07 10:15:30;;;;;;;;;53.25;43.00;;;;;;;;12480002;28;8844;-53
2021/01/07 10:21:38;;;;;;;;;46.25;41.25;;;;;;;;12482487;28;8840;-49
2021/01/07 10:27:40;;;;;;;;;45.75;38.00;;;;;;;;12470030;28;8846;-54
2021/01/07 10:33:42;;;;;;;;;41.75;38.25;;;;;;;;12479703;28;8848;-55
2021/01/07 10:39:48;;;;;;;;;46.00;38.75;;;;;;;;12479184;28;8950;-54
2021/01/07 10:45:53;;;;;;;;;34.75;30.50;;;;;;;;12461373;28;8843;-53
2021/01/07 10:52:15;;;;;;;;;45.00;38.50;;;;;;;;12491511;28;8852;-51
2021/01/07 10:58:45;;;;;;;;;50.00;42.75;;;;;;;;12473860;28;8836;-49
2021/01/07 11:05:07;;;;;;;;;35.00;33.75;;;;;;;;12482546;28;8854;-49
2021/01/07 11:11:22;;;;;;;;;46.25;40.00;;;;;;;;12463751;28;8914;-52
2021/01/07 11:17:27;;;;;;;;;50.50;42.75;;;;;;;;12484817;28;8822;-50
2021/01/07 11:23:30;;;;;;;;;44.50;41.25;;;;;;;;12498543;28;8895;-53
2021/01/07 11:29:34;;;;;;;;;59.50;47.25;;;;;;;;12454770;28;8882;-49
2021/01/07 11:35:37;;;;;;;;;52.25;44.00;;;;;;;;12490560;28;9010;-51
2021/01/07 11:41:39;;;;;;;;;49.75;43.00;;;;;;;;12489907;28;8867;-51
2021/01/07 11:47:47;;;;;;;;;42.00;38.25;;;;;;;;12479095;28;8831;-52
2021/01/07 11:53:50;;;;;;;;;43.75;38.50;;;;;;;;12474049;28;8871;-52
2021/01/07 11:59:52;;;;;;;;;40.00;35.75;;;;;;;;12465949;28;8847;-49
2021/01/07 12:05:56;;;;;;;;;41.00;37.25;;;;;;;;12471814;28;8986;-51
2021/01/07 12:12:03;;;;;;;;;17.75;17.50;;;;;;;;12456545;28;9544;-50
2021/01/07 12:18:07;;;;;;;;;27.75;26.50;;;;;;;;12475804;28;8997;-51
2021/01/07 12:24:11;;;;;;;;;16.75;16.25;;;;;;;;12470515;28;8890;-55
2021/01/07 12:30:17;;;;;;;;;13.75;12.50;;;;;;;;12491790;28;8844;-54
2021/01/07 12:36:32;;;;;;;;;9.50;9.50;;;;;;;;12496587;28;8989;-52
2021/01/07 12:42:42;;;;;;;;;23.25;21.75;;;;;;;;12490611;28;8846;-51
2021/01/07 12:48:45;;;;;;;;;27.00;21.75;;;;;;;;12477647;28;8834;-53
2021/01/07 12:54:47;;;;;;;;;17.50;14.50;;;;;;;;12497387;28;8839;-52
2021/01/07 13:01:05;;;;;;;;;19.00;16.75;;;;;;;;12493741;28;8834;-54
2021/01/07 13:07:08;;;;;;;;;17.25;14.75;;;;;;;;12499115;28;8891;-49
2021/01/07 13:13:13;;;;;;;;;11.00;11.00;;;;;;;;12478674;28;8876;-50
2021/01/07 13:19:15;;;;;;;;;12.00;12.00;;;;;;;;12489641;28;9697;-52
2021/01/07 13:25:19;;;;;;;;;16.50;14.00;;;;;;;;12492646;28;8839;-54
2021/01/07 13:31:20;;;;;;;;;9.75;9.75;;;;;;;;12489529;28;8840;-54
2021/01/07 13:37:22;;;;;;;;;12.50;9.00;;;;;;;;12494545;28;8872;-53
2021/01/07 13:43:24;;;;;;;;;12.00;10.00;;;;;;;;12499757;28;8976;-52
2021/01/07 13:49:26;;;;;;;;;14.50;12.75;;;;;;;;12489584;28;8869;-52
2021/01/07 13:55:30;;;;;;;;;16.50;16.00;;;;;;;;12498873;28;8876;-51
2021/01/07 14:01:39;;;;;;;;;14.50;13.00;;;;;;;;12497498;28;8986;-50
2021/01/07 14:07:56;;;;;;;;;13.00;13.00;;;;;;;;12492242;28;8858;-53
2021/01/07 14:13:58;;;;;;;;;16.00;14.25;;;;;;;;12483981;28;8984;-50
2021/01/07 14:20:01;;;;;;;;;14.25;14.25;;;;;;;;12487507;28;8856;-52
2021/01/07 14:26:04;;;;;;;;;12.00;12.00;;;;;;;;12482077;28;8988;-49
2021/01/07 14:32:06;;;;;;;;;13.00;12.25;;;;;;;;12477218;28;8860;-54
2021/01/07 14:38:11;;;;;;;;;16.25;15.00;;;;;;;;12482402;28;8890;-51
2021/01/07 14:44:12;;;;;;;;;17.50;15.25;;;;;;;;12459984;28;8864;-48
2021/01/07 14:50:18;;;;;;;;;70.75;56.00;;;;;;;;12494452;28;9580;-57
2021/01/07 14:56:25;;;;;;;;;23.25;20.25;;;;;;;;12489424;28;8838;-50
2021/01/07 15:02:51;;;;;;;;;24.75;23.50;;;;;;;;12485755;28;8860;-51
2021/01/07 15:09:06;;;;;;;;;19.50;19.00;;;;;;;;12488794;28;8848;-55
2021/01/07 15:15:13;;;;;;;;;19.75;19.75;;;;;;;;12491197;28;8876;-53
2021/01/07 15:21:29;;;;;;;;;16.75;16.75;;;;;;;;12488819;28;8853;-53
2021/01/07 15:27:55;;;;;;;;;18.25;18.25;;;;;;;;12494997;28;8862;-51
2021/01/07 15:34:04;;;;;;;;;15.00;15.00;;;;;;;;12500554;28;9590;-52
2021/01/07 15:40:36;;;;;;;;;16.00;16.00;;;;;;;;12499383;28;8874;-52
2021/01/07 15:46:59;;;;;;;;;17.25;15.75;;;;;;;;12492606;28;8937;-52
2021/01/07 15:53:00;;;;;;;;;19.50;19.50;;;;;;;;12499668;28;9620;-51
2021/01/07 15:59:22;;;;;;;;;20.25;16.00;;;;;;;;12497601;28;9614;-50
2021/01/07 16:05:28;;;;;;;;;19.00;19.00;;;;;;;;12507181;28;8863;-53
2021/01/07 16:11:30;;;;;;;;;15.50;15.50;;;;;;;;12496814;28;8866;-55
2021/01/07 16:17:32;;;;;;;;;18.75;16.50;;;;;;;;12492829;28;8971;-49
2021/01/07 16:23:37;;;;;;;;;20.50;19.00;;;;;;;;12496608;28;8837;-52
2021/01/07 16:29:40;;;;;;;;;22.25;19.25;;;;;;;;12490850;28;8953;-51
2021/01/07 16:35:42;;;;;;;;;20.25;15.50;;;;;;;;12494752;28;8863;-56
2021/01/07 16:41:45;;;;;;;;;18.50;18.50;;;;;;;;12496607;28;8845;-51
2021/01/07 16:47:46;;;;;;;;;21.00;15.25;;;;;;;;12498592;28;8845;-51
2021/01/07 16:53:47;;;;;;;;;16.00;16.00;;;;;;;;12499184;28;8915;-52
2021/01/07 16:59:54;;;;;;;;;18.00;15.75;;;;;;;;12484376;28;8832;-52
2021/01/07 17:05:55;;;;;;;;;21.25;18.75;;;;;;;;12491059;28;8848;-52
2021/01/07 17:11:56;;;;;;;;;19.75;19.75;;;;;;;;12495036;28;9689;-49
2021/01/07 17:17:58;;;;;;;;;21.75;19.75;;;;;;;;12503240;28;9636;-51
2021/01/07 17:24:04;;;;;;;;;17.50;15.50;;;;;;;;12496294;28;8956;-50
2021/01/07 17:30:18;;;;;;;;;19.00;19.00;;;;;;;;12489154;28;8840;-50
2021/01/07 17:36:24;;;;;;;;;23.50;20.25;;;;;;;;12497663;28;8848;-53
2021/01/07 17:42:25;;;;;;;;;24.75;22.00;;;;;;;;12502326;28;8859;-53
2021/01/07 17:48:27;;;;;;;;;21.00;19.25;;;;;;;;12503967;28;8832;-52
2021/01/07 17:54:28;;;;;;;;;17.75;15.75;;;;;;;;12499763;28;8909;-51
2021/01/07 18:00:30;;;;;;;;;24.50;24.50;;;;;;;;12496890;28;8843;-51
2021/01/07 18:06:34;;;;;;;;;25.75;18.50;;;;;;;;12488024;28;8966;-53
2021/01/07 18:12:36;;;;;;;;;25.25;23.25;;;;;;;;12492405;28;8955;-53
2021/01/07 18:18:37;;;;;;;;;22.25;20.50;;;;;;;;12489217;28;8844;-53
2021/01/07 18:24:39;;;;;;;;;19.25;16.25;;;;;;;;12487087;28;8866;-56
2021/01/07 18:30:40;;;;;;;;;27.75;25.50;;;;;;;;12490932;28;8836;-54
2021/01/07 18:36:42;;;;;;;;;26.25;20.25;;;;;;;;12488806;28;8851;-54
2021/01/07 18:42:44;;;;;;;;;23.00;21.00;;;;;;;;12488603;28;9665;-52
2021/01/07 18:48:45;;;;;;;;;25.25;21.25;;;;;;;;12488520;28;8844;-50
2021/01/07 18:54:47;;;;;;;;;28.25;26.00;;;;;;;;12488968;28;8951;-51
2021/01/07 19:00:49;;;;;;;;;17.00;17.00;;;;;;;;12490703;28;8909;-50
2021/01/07 19:06:51;;;;;;;;;26.25;22.00;;;;;;;;12508044;28;714806;-50
2021/01/07 19:12:52;;;;;;;;;22.50;19.25;;;;;;;;12541782;28;9047;-52
2021/01/07 19:18:54;;;;;;;;;22.50;21.00;;;;;;;;12543819;28;8830;-48
2021/01/07 19:24:55;;;;;;;;;20.00;20.00;;;;;;;;12523840;28;8935;-50
2021/01/07 19:30:57;;;;;;;;;21.50;19.00;;;;;;;;12545579;28;8834;-49
2021/01/07 19:37:01;;;;;;;;;16.25;16.25;;;;;;;;12550067;28;8832;-49
2021/01/07 19:43:03;;;;;;;;;23.75;18.75;;;;;;;;12548332;28;9672;-50
2021/01/07 19:49:05;;;;;;;;;23.00;21.50;;;;;;;;12559791;28;8883;-50
2021/01/07 19:55:07;;;;;;;;;21.75;20.25;;;;;;;;12550573;28;8836;-51
2021/01/07 20:01:08;;;;;;;;;19.50;13.50;;;;;;;;12548325;28;8850;-53
2021/01/07 20:07:10;;;;;;;;;21.50;19.75;;;;;;;;12489651;28;8847;-52
2021/01/07 20:13:12;;;;;;;;;25.75;22.50;;;;;;;;12502976;28;8868;-50
2021/01/07 20:19:13;;;;;;;;;22.00;20.50;;;;;;;;12507768;28;8952;-51
2021/01/07 20:25:18;;;;;;;;;20.75;20.50;;;;;;;;12490177;28;8834;-50
2021/01/07 20:31:20;;;;;;;;;22.25;22.25;;;;;;;;12487484;28;8829;-50
2021/01/07 20:37:23;;;;;;;;;19.75;19.50;;;;;;;;12498188;28;8863;-49
2021/01/07 20:43:24;;;;;;;;;19.00;16.75;;;;;;;;12490934;28;8854;-47
2021/01/07 20:49:26;;;;;;;;;20.25;17.50;;;;;;;;12499778;28;9597;-50
2021/01/07 20:55:27;;;;;;;;;22.50;22.00;;;;;;;;12493969;28;8862;-56
2021/01/07 21:01:29;;;;;;;;;19.50;19.00;;;;;;;;12492100;28;8868;-52
2021/01/07 21:07:30;;;;;;;;;27.75;22.75;;;;;;;;12545900;28;8860;-53
2021/01/07 21:13:32;;;;;;;;;26.25;24.75;;;;;;;;12544403;28;8814;-50
2021/01/07 21:19:34;;;;;;;;;20.50;20.50;;;;;;;;12550306;28;8836;-46
2021/01/07 21:25:35;;;;;;;;;24.25;23.25;;;;;;;;12544365;28;8838;-54
2021/01/07 21:31:36;;;;;;;;;28.50;22.50;;;;;;;;12545979;28;8838;-48
2021/01/07 21:37:38;;;;;;;;;22.25;19.25;;;;;;;;12553998;28;8870;-50
2021/01/07 21:43:39;;;;;;;;;13.00;12.50;;;;;;;;12547365;28;8842;-50
2021/01/07 21:49:41;;;;;;;;;20.50;18.50;;;;;;;;12550078;28;8824;-48
2021/01/07 21:55:43;;;;;;;;;19.75;18.75;;;;;;;;12547491;28;8850;-47
2021/01/07 22:01:55;;;;;;;;;24.75;21.25;;;;;;;;12551509;28;8837;-50
2021/01/07 22:07:56;;;;;;;;;25.25;20.50;;;;;;;;12547696;28;8835;-51
2021/01/07 22:13:58;;;;;;;;;19.25;18.00;;;;;;;;12552864;28;8830;-52
2021/01/07 22:19:59;;;;;;;;;23.00;22.75;;;;;;;;12548542;28;8853;-49
2021/01/07 22:26:01;;;;;;;;;20.50;20.25;;;;;;;;12540562;28;8846;-47
2021/01/07 22:32:02;;;;;;;;;24.00;22.00;;;;;;;;12542790;28;8845;-48
2021/01/07 22:38:06;;;;;;;;;27.50;21.25;;;;;;;;12535876;28;8840;-50
2021/01/07 22:44:08;;;;;;;;;23.25;23.25;;;;;;;;12511776;28;8865;-51
2021/01/07 22:50:10;;;;;;;;;29.25;25.50;;;;;;;;12534582;28;8850;-49
2021/01/07 22:56:11;;;;;;;;;18.75;18.75;;;;;;;;12534179;28;8853;-50
2021/01/07 23:02:14;;;;;;;;;19.75;18.25;;;;;;;;12545708;28;8842;-52
2021/01/07 23:08:16;;;;;;;;;22.25;22.25;;;;;;;;12538422;28;9573;-51
2021/01/07 23:14:17;;;;;;;;;21.75;19.00;;;;;;;;12531722;28;8846;-46
2021/01/07 23:20:18;;;;;;;;;24.25;20.75;;;;;;;;12546778;28;8842;-52
2021/01/07 23:26:20;;;;;;;;;25.75;23.00;;;;;;;;12536997;28;8837;-47
2021/01/07 23:32:21;;;;;;;;;22.50;21.75;;;;;;;;12546499;28;8849;-49
2021/01/07 23:38:26;;;;;;;;;19.75;19.75;;;;;;;;12542368;28;8832;-52
2021/01/07 23:44:27;;;;;;;;;24.00;24.00;;;;;;;;12547602;28;8942;-49
2021/01/07 23:50:28;;;;;;;;;26.00;23.50;;;;;;;;12546768;28;8852;-49
2021/01/07 23:56:30;;;;;;;;;29.00;23.50;;;;;;;;12542276;28;8846;-48
